ROOKIE5 EFOU-EFRO

Flight info

Callsign ROOKIE5
Flight time 0h 26m
Altitude 14000
Route HAILUOTO KEMIJOKI
Aircraft F35/M-SDGIRUY/C

Departure

Time 2026-05-09 17:01
Airport Oulu Airport (EFOU)

Arrival

Time 2026-05-09 17:27
Airport Rovaniemi Airport (EFRO)
Time Latitude Longitude Altitude Speed Heading
2026-05-09 16:55 64.93085 25.33626 48 ft 0 kts 281°
2026-05-09 16:59 64.93086 25.33617 48 ft 6 kts 281°
2026-05-09 16:59 64.93104 25.33578 48 ft 4 kts 357°
2026-05-09 16:59 64.93161 25.33608 48 ft 15 kts 15°
2026-05-09 17:00 64.93255 25.33663 48 ft 6 kts 44°
2026-05-09 17:00 64.93300 25.33812 49 ft 14 kts 33°
2026-05-09 17:00 64.93373 25.34011 52 ft 17 kts 110°
2026-05-09 17:00 64.93310 25.34266 48 ft 16 kts 121°
2026-05-09 17:01 64.92957 25.35604 55 ft 202 kts 124°
2026-05-09 17:01 64.92068 25.38930 752 ft 264 kts 133°
2026-05-09 17:01 64.90353 25.39678 1440 ft 258 kts 228°
2026-05-09 17:01 64.90244 25.35560 1518 ft 266 kts 279°
2026-05-09 17:02 64.90649 25.31266 1836 ft 271 kts 282°
2026-05-09 17:02 64.91081 25.27548 3982 ft 216 kts 282°
2026-05-09 17:02 64.91620 25.23468 7841 ft 273 kts 282°
2026-05-09 17:02 64.92246 25.19078 12023 ft 330 kts 285°
2026-05-09 17:03 64.93002 25.13700 12557 ft 339 kts 286°
2026-05-09 17:04 64.91671 24.64114 13983 ft 477 kts 261°
2026-05-09 17:05 64.91691 24.56274 14006 ft 480 kts 275°
2026-05-09 17:05 64.92333 24.48573 14018 ft 482 kts 288°
2026-05-09 17:05 64.93934 24.41582 14037 ft 489 kts 306°
2026-05-09 17:05 64.96437 24.36135 14048 ft 496 kts 325°
2026-05-09 17:06 64.99627 24.33036 13994 ft 505 kts 353°
2026-05-09 17:06 65.03074 24.34186 13962 ft 497 kts 39°
2026-05-09 17:06 65.05698 24.40045 13980 ft 520 kts 44°
2026-05-09 17:06 65.08245 24.46120 13936 ft 519 kts 45°
2026-05-09 17:07 65.10763 24.52164 13860 ft 518 kts 45°
2026-05-09 17:07 65.12478 24.56280 13805 ft 520 kts 45°
2026-05-09 17:07 65.15823 24.64404 13754 ft 520 kts 45°
2026-05-09 17:07 65.18345 24.70557 13719 ft 518 kts 45°
2026-05-09 17:08 65.20827 24.76836 13600 ft 519 kts 47°
2026-05-09 17:08 65.25718 24.87880 9761 ft 456 kts 21°
2026-05-09 17:08 65.28613 24.90286 8907 ft 425 kts 17°
2026-05-09 17:09 65.31337 24.92508 8078 ft 400 kts 21°
2026-05-09 17:09 65.33926 24.94929 6718 ft 398 kts 19°
2026-05-09 17:09 65.36471 24.97084 5351 ft 364 kts 19°
2026-05-09 17:09 65.38728 24.98427 3655 ft 307 kts 342°
2026-05-09 17:10 65.40822 24.97105 2992 ft 306 kts 343°
2026-05-09 17:10 65.43035 24.95738 1773 ft 406 kts 341°
2026-05-09 17:10 65.46419 24.93001 80 ft 595 kts 339°
2026-05-09 17:10 65.50499 24.89550 107 ft 638 kts 339°
2026-05-09 17:11 65.54737 24.85870 88 ft 649 kts 339°
2026-05-09 17:11 65.58504 24.81279 995 ft 524 kts 296°
2026-05-09 17:11 65.60058 24.74138 652 ft 447 kts 301°
2026-05-09 17:11 65.61655 24.68069 303 ft 414 kts 310°
2026-05-09 17:12 65.63635 24.63413 303 ft 386 kts 303°
2026-05-09 17:12 65.65026 24.57796 454 ft 392 kts 298°
2026-05-09 17:12 65.66679 24.54839 1268 ft 249 kts 18°
2026-05-09 17:12 65.68607 24.54347 931 ft 365 kts 332°
2026-05-09 17:13 65.70970 24.51662 1306 ft 385 kts 332°
2026-05-09 17:13 65.73413 24.48856 1863 ft 392 kts 332°
2026-05-09 17:13 65.75535 24.49906 1701 ft 303 kts 19°
2026-05-09 17:13 65.77466 24.51624 1446 ft 288 kts 19°
2026-05-09 17:14 65.79294 24.53276 1202 ft 272 kts 20°
2026-05-09 17:14 65.81201 24.55119 711 ft 308 kts 22°
2026-05-09 17:14 65.83116 24.57048 585 ft 292 kts 20°
2026-05-09 17:14 65.84926 24.59052 372 ft 294 kts 39°
2026-05-09 17:15 65.86676 24.61248 665 ft 302 kts
2026-05-09 17:15 65.88672 24.62249 435 ft 265 kts 41°
2026-05-09 17:15 65.89531 24.66554 344 ft 286 kts 70°
2026-05-09 17:15 65.90378 24.70471 516 ft 256 kts 44°
2026-05-09 17:16 65.92265 24.70330 343 ft 284 kts
2026-05-09 17:17 66.06179 24.79308 253 ft 320 kts
2026-05-09 17:18 66.08323 24.79914 93 ft 213 kts 157°
2026-05-09 17:18 66.09188 24.80031 148 ft 204 kts 19°
2026-05-09 17:18 66.10440 24.83020 421 ft 323 kts 58°
2026-05-09 17:18 66.11590 24.88605 340 ft 345 kts 64°
2026-05-09 17:19 66.12074 24.93772 395 ft 291 kts 89°
2026-05-09 17:19 66.12838 24.97700 462 ft 239 kts 58°
2026-05-09 17:19 66.13530 25.01090 388 ft 243 kts 72°
2026-05-09 17:19 66.13915 25.06308 463 ft 330 kts 90°
2026-05-09 17:20 66.14268 25.11446 622 ft 270 kts 43°
2026-05-09 17:20 66.15760 25.14419 697 ft 282 kts 62°
2026-05-09 17:20 66.16289 25.18964 697 ft 276 kts 82°
2026-05-09 17:20 66.16710 25.23499 767 ft 270 kts 69°
2026-05-09 17:21 66.18020 25.26873 966 ft 282 kts 34°
2026-05-09 17:21 66.19702 25.29395 898 ft 280 kts 31°
2026-05-09 17:21 66.21349 25.31940 932 ft 280 kts 34°
2026-05-09 17:21 66.23001 25.34421 908 ft 279 kts 22°
2026-05-09 17:22 66.24864 25.35905 923 ft 279 kts 10°
2026-05-09 17:22 66.26824 25.36326 1178 ft 280 kts
2026-05-09 17:22 66.28737 25.37216 1271 ft 279 kts 11°
2026-05-09 17:22 66.30681 25.38213 1403 ft 287 kts
2026-05-09 17:23 66.32652 25.39085 1555 ft 288 kts
2026-05-09 17:23 66.34616 25.39953 1719 ft 290 kts
2026-05-09 17:23 66.36607 25.41025 1833 ft 295 kts 21°
2026-05-09 17:23 66.38324 25.43808 1703 ft 297 kts 41°
2026-05-09 17:25 66.45584 25.60691 672 ft 275 kts 43°
2026-05-09 17:25 66.47046 25.63849 879 ft 275 kts 41°
2026-05-09 17:25 66.48509 25.67024 1017 ft 284 kts 46°
2026-05-09 17:25 66.49720 25.70658 972 ft 257 kts 37°
2026-05-09 17:26 66.50951 25.73490 978 ft 222 kts 36°
2026-05-09 17:26 66.52223 25.75656 926 ft 213 kts 31°
2026-05-09 17:26 66.53453 25.77515 822 ft 223 kts 32°
2026-05-09 17:26 66.54737 25.79725 784 ft 223 kts 36°
2026-05-09 17:27 66.55796 25.81728 650 ft 151 kts 37°
2026-05-09 17:27 66.56446 25.82941 640 ft 85 kts 38°
2026-05-09 17:27 66.56829 25.83326 638 ft 43 kts 352°
2026-05-09 17:27 66.57012 25.83210 637 ft 6 kts 270°
2026-05-09 17:28 66.57012 25.83208 637 ft 0 kts 270°